»·PEaware :: N5312S KTOA-KCMA

N5312S :: KTOA-KCMA

FLIGHT INFORMATION

Flight Status: Arrived
Operator: Privately registered:
United States
More flights under this callsign
Pilot: Nicholas D. (22687)
Aircraft: CESSNA 172 SKYHAWK
(C172)
More flights by this aircraft type
Origin: KTOA Zamperini
United States
Destination: KCMA Camarillo
United States
More flights between these airports :: More routes between these airports
Route: LAX170 LIMBO V64 SMO125 SMO VNY
File this flight plan on PilotEdge
Remarks: +CW /
Altitude:
(Current/Filed)
4,000ft
Speed:
(Current/Filed)
105kts
Departed: 21-Nov-19 04:53 PM
Arrived: 21-Nov-19 05:35 PM
Distance/Time
Traveled:
45nm/0:42
Distance/Time
To Go:
Arrived

Flight Plot

Page will automatically refresh every two minutes.

Flight plan parsing failed; only flown route is shown


Map Options




Map Legend


Flown Route
Filed Route
Departure Airport
Arrival Airport
Navaid (VOR, NDB)
Fix

Horizontal Profiles

Position Reports

Time Latitude Longitude Heading Altitude Ground
Speed
21-Nov-19 16:34 33.803552 -118.345385 218 106ft 0kts
21-Nov-19 16:35 33.803550 -118.345387 218 106ft 0kts
21-Nov-19 16:36 33.803548 -118.345389 218 106ft 0kts
21-Nov-19 16:37 33.803546 -118.345390 218 106ft 0kts
21-Nov-19 16:38 33.803544 -118.345392 218 106ft 0kts
21-Nov-19 16:39 33.803543 -118.345394 218 106ft 0kts
21-Nov-19 16:40 33.803541 -118.345396 218 106ft 0kts
21-Nov-19 16:41 33.803539 -118.345398 218 106ft 0kts
21-Nov-19 16:42 33.803537 -118.345400 218 106ft 0kts
21-Nov-19 16:43 33.803535 -118.345401 218 106ft 0kts
21-Nov-19 16:44 33.803533 -118.345403 218 106ft 0kts
21-Nov-19 16:45 33.804090 -118.344870 41 106ft 14kts
21-Nov-19 16:46 33.801992 -118.340717 129 106ft 21kts
21-Nov-19 16:47 33.798754 -118.335885 129 106ft 15kts
21-Nov-19 16:48 33.799104 -118.333513 37 106ft 0kts
21-Nov-19 16:49 33.799106 -118.333512 37 106ft 0kts
21-Nov-19 16:50 33.799108 -118.333510 37 106ft 0kts
21-Nov-19 16:51 33.800143 -118.333745 308 106ft 25kts
21-Nov-19 16:52 33.813179 -118.351199 316 657ft 84kts
21-Nov-19 16:53 33.828049 -118.372584 299 1448ft 81kts
21-Nov-19 16:54 33.841832 -118.395656 301 2158ft 86kts
21-Nov-19 16:55 33.855361 -118.419841 308 2833ft 90kts
21-Nov-19 16:56 33.853442 -118.441280 168 3320ft 93kts
21-Nov-19 16:57 33.830658 -118.442998 196 4018ft 86kts
21-Nov-19 16:58 33.803822 -118.449329 185 4055ft 106kts
21-Nov-19 16:59 33.773137 -118.453928 192 3985ft 109kts
21-Nov-19 17:00 33.747567 -118.445233 101 3948ft 115kts
21-Nov-19 17:01 33.771083 -118.433031 342 4037ft 113kts
21-Nov-19 17:02 33.802938 -118.440727 352 3962ft 117kts
21-Nov-19 17:03 33.835510 -118.443203 5 3946ft 114kts
21-Nov-19 17:04 33.866021 -118.442355 354 4095ft 109kts
21-Nov-19 17:05 33.897130 -118.444651 349 4054ft 116kts
21-Nov-19 17:06 33.928518 -118.450151 350 4091ft 115kts
21-Nov-19 17:07 33.960727 -118.452429 2 4013ft 117kts
21-Nov-19 17:08 33.993295 -118.452853 351 3967ft 117kts
21-Nov-19 17:09 34.024853 -118.457148 2 4205ft 108kts
21-Nov-19 17:10 34.054540 -118.461070 355 4427ft 115kts
21-Nov-19 17:11 34.086442 -118.464446 356 4409ft 116kts
21-Nov-19 17:12 34.118428 -118.468680 352 4379ft 116kts
21-Nov-19 17:13 34.149495 -118.476245 346 4416ft 114kts
21-Nov-19 17:14 34.180969 -118.482996 349 4418ft 114kts
21-Nov-19 17:15 34.212300 -118.489488 355 4414ft 115kts
21-Nov-19 17:16 34.230342 -118.511660 254 4485ft 106kts
21-Nov-19 17:17 34.228071 -118.548311 272 4461ft 108kts
21-Nov-19 17:18 34.229590 -118.585438 267 4450ft 112kts
21-Nov-19 17:19 34.233120 -118.623562 275 4417ft 111kts
21-Nov-19 17:20 34.236876 -118.660774 275 4413ft 113kts
21-Nov-19 17:21 34.239124 -118.698470 277 4394ft 112kts
21-Nov-19 17:22 34.244370 -118.735552 278 4395ft 112kts
21-Nov-19 17:23 34.249355 -118.771980 273 4456ft 109kts
21-Nov-19 17:24 34.251251 -118.806917 260 4545ft 99kts
21-Nov-19 17:25 34.248060 -118.841244 253 4220ft 103kts
21-Nov-19 17:26 34.241251 -118.874757 255 3728ft 102kts
21-Nov-19 17:27 34.235667 -118.908175 254 3271ft 96kts
21-Nov-19 17:28 34.232671 -118.938995 259 2777ft 93kts
21-Nov-19 17:29 34.227301 -118.969310 260 2217ft 92kts
21-Nov-19 17:30 34.225323 -118.999868 257 1791ft 93kts
21-Nov-19 17:31 34.220912 -119.030079 254 1237ft 90kts
21-Nov-19 17:32 34.215032 -119.056273 253 707ft 75kts
21-Nov-19 17:33 34.213607 -119.078836 266 211ft 64kts
21-Nov-19 17:34 34.213117 -119.090620 181 78ft 3kts
21-Nov-19 17:35 34.211594 -119.089614 139 78ft 17kts

Navigation Log

Ident Type
Flight plan parsing failed, navigation log unavailable